Girton, United Kingdom
Current Conditions -  °F | °C
As of 2:20 PM on Thursday 29 Jan 2015 (Local Time) from EGSC Reporting Station
Snow Showers Snow Showers  
Wind Chill: 26°   Ceiling: 2500
Heat Index: 37°   Visibility: 6mi
Dew Point: 32°   Wind: 26mph
Humidity: 81%   Direction: 240°WSW
Pressure: 28.85"   Gusts: 38mph
Location:  52.23°N, 0.08°E
Report Text: EGSC 291420Z 24023G33KT 220V280 9999 SHRASN FEW003 BKN025 03/00 Q0977
Loading
Personal Weather Stations






























Interactive Weather Map New forecast layout! Learn more

10-Day Weather Forecast

Advertisements
Track Severe Weather on mobile